createdAt,value
2018-09-19T00:02:08.964Z,13.57
2018-09-19T00:04:37.433Z,13.40
2018-09-19T00:07:06.035Z,11.97
2018-09-19T00:09:34.674Z,14.17
2018-09-19T00:12:03.310Z,11.57
2018-09-19T00:14:31.831Z,11.83
2018-09-19T00:17:00.395Z,17.23
2018-09-19T00:19:29.034Z,9.17
2018-09-19T00:21:58.531Z,13.13
2018-09-19T00:24:27.078Z,9.57
2018-09-19T00:26:55.636Z,7.40
2018-09-19T00:29:24.250Z,10.60
2018-09-19T00:31:52.799Z,8.70
2018-09-19T00:34:21.424Z,12.13
2018-09-19T00:36:49.978Z,10.00
2018-09-19T00:39:18.556Z,10.40
2018-09-19T00:41:47.148Z,7.67
2018-09-19T00:44:15.698Z,11.23
2018-09-19T00:46:44.185Z,9.87
2018-09-19T00:49:12.833Z,9.40
2018-09-19T00:51:41.385Z,9.30
2018-09-19T00:54:09.940Z,9.07
2018-09-19T00:56:38.613Z,9.37
2018-09-19T00:59:08.128Z,10.00
2018-09-19T01:01:36.676Z,11.50
2018-09-19T01:04:05.252Z,13.77
2018-09-19T01:06:33.737Z,7.97
2018-09-19T01:09:02.263Z,11.70
2018-09-19T01:11:30.862Z,8.63
2018-09-19T01:13:59.479Z,7.93
2018-09-19T01:16:27.972Z,10.07
2018-09-19T01:18:58.725Z,10.30
2018-09-19T01:21:27.441Z,9.60
2018-09-19T01:23:57.978Z,7.07
2018-09-19T01:26:26.508Z,9.77
2018-09-19T01:28:55.145Z,9.80
2018-09-19T01:31:23.708Z,8.83
2018-09-19T01:33:52.300Z,8.23
2018-09-19T01:36:20.995Z,7.87
2018-09-19T01:38:49.584Z,7.93
2018-09-19T01:41:19.023Z,7.97
2018-09-19T01:43:47.513Z,9.53
2018-09-19T01:46:16.009Z,9.70
2018-09-19T01:48:45.620Z,9.40
2018-09-19T01:51:16.119Z,8.73
2018-09-19T01:53:44.642Z,8.67
2018-09-19T01:56:13.190Z,7.97
2018-09-19T01:58:41.792Z,7.87
2018-09-19T02:01:10.393Z,9.63
2018-09-19T02:03:38.984Z,11.97
2018-09-19T02:06:07.536Z,9.53
2018-09-19T02:08:36.166Z,9.27
2018-09-19T02:11:06.019Z,7.33
2018-09-19T02:13:36.573Z,10.33
2018-09-19T02:16:06.162Z,8.33
2018-09-19T02:18:34.791Z,10.70
2018-09-19T02:21:03.374Z,8.27
2018-09-19T02:23:31.909Z,10.17
2018-09-19T02:26:00.513Z,9.30
2018-09-19T02:28:29.237Z,11.30
2018-09-19T02:30:59.718Z,8.67
2018-09-19T02:33:28.331Z,8.77
2018-09-19T02:35:58.968Z,8.80
2018-09-19T02:38:27.589Z,8.83
2018-09-19T02:40:56.152Z,10.57
2018-09-19T02:43:24.661Z,10.50
2018-09-19T02:45:53.156Z,10.13
2018-09-19T02:48:21.756Z,8.33
2018-09-19T02:50:52.283Z,9.67
2018-09-19T02:53:20.895Z,11.43
2018-09-19T02:55:49.438Z,9.67
2018-09-19T02:58:18.010Z,8.23
2018-09-19T03:00:46.619Z,8.63
2018-09-19T03:03:15.175Z,11.63
2018-09-19T03:05:45.733Z,13.70
2018-09-19T03:08:15.325Z,7.10
2018-09-19T03:10:43.941Z,7.23
2018-09-19T03:13:12.814Z,7.70
2018-09-19T03:15:41.377Z,7.07
2018-09-19T03:18:10.005Z,8.73
2018-09-19T03:20:39.572Z,11.30
2018-09-19T03:23:08.188Z,10.43
2018-09-19T03:25:36.738Z,9.30
2018-09-19T03:28:05.400Z,9.33
2018-09-19T03:30:34.928Z,10.07
2018-09-19T03:33:03.528Z,9.17
2018-09-19T03:35:32.475Z,10.13
2018-09-19T03:38:01.019Z,10.47
2018-09-19T03:40:30.729Z,9.27
2018-09-19T03:42:59.245Z,8.00
2018-09-19T03:45:27.809Z,11.60
2018-09-19T03:47:56.314Z,9.83
2018-09-19T03:50:24.812Z,7.70
2018-09-19T03:52:53.391Z,10.17
2018-09-19T03:55:21.976Z,6.93
2018-09-19T03:57:52.482Z,7.83
2018-09-19T04:00:22.200Z,9.90
2018-09-19T04:02:50.866Z,8.70
2018-09-19T04:05:19.375Z,6.77
2018-09-19T04:07:47.944Z,9.07
2018-09-19T04:10:16.468Z,6.13
2018-09-19T04:12:45.065Z,7.00
2018-09-19T04:15:13.616Z,8.03
2018-09-19T04:17:42.231Z,9.10
2018-09-19T04:20:10.880Z,7.27
2018-09-19T04:22:39.342Z,10.77
2018-09-19T04:25:07.969Z,7.20
2018-09-19T04:27:38.586Z,10.50
2018-09-19T04:30:07.160Z,7.43
2018-09-19T04:32:35.718Z,6.50
2018-09-19T04:35:04.207Z,11.87
2018-09-19T04:37:32.805Z,8.57
2018-09-19T04:40:03.366Z,9.30
2018-09-19T04:42:31.913Z,9.30
2018-09-19T04:45:00.540Z,11.40
2018-09-19T04:47:29.074Z,9.97
2018-09-19T04:49:57.679Z,7.67
2018-09-19T04:52:26.267Z,9.10
2018-09-19T04:54:54.819Z,7.10
2018-09-19T04:57:23.401Z,6.90
2018-09-19T04:59:51.974Z,9.33
2018-09-19T05:02:20.611Z,10.30
2018-09-19T05:04:49.152Z,15.73
2018-09-19T05:07:17.802Z,11.27
2018-09-19T05:09:47.388Z,10.90
2018-09-19T05:12:16.000Z,13.27
2018-09-19T05:14:44.555Z,14.13
2018-09-19T05:17:13.136Z,12.67
2018-09-19T05:19:41.678Z,12.70
2018-09-19T05:22:10.260Z,9.90
2018-09-19T05:24:38.761Z,8.83
2018-09-19T05:27:07.326Z,18.20
2018-09-19T05:29:36.967Z,15.43
2018-09-19T05:34:40.467Z,55.63
2018-09-19T05:37:09.012Z,37.43
2018-09-19T05:39:39.550Z,26.93
2018-09-19T05:42:08.060Z,56.17
2018-09-19T05:44:37.509Z,59.03
2018-09-19T05:47:07.111Z,58.87
2018-09-19T05:49:35.607Z,54.10
2018-09-19T05:52:04.129Z,84.87
2018-09-19T05:54:36.757Z,73.37
2018-09-19T05:57:05.836Z,53.40
2018-09-19T05:59:34.314Z,43.07
2018-09-19T06:02:03.596Z,36.50
2018-09-19T06:04:33.161Z,32.73
2018-09-19T06:07:01.803Z,19.07
2018-09-19T06:09:30.317Z,17.10
2018-09-19T06:12:01.046Z,20.70
2018-09-19T06:14:29.559Z,16.03
2018-09-19T06:16:58.058Z,21.87
2018-09-19T06:19:27.685Z,19.13
2018-09-19T06:21:56.179Z,21.50
2018-09-19T06:24:24.680Z,20.67
2018-09-19T06:26:53.193Z,20.17
2018-09-19T06:29:21.712Z,13.30
2018-09-19T06:31:50.205Z,14.93
2018-09-19T06:34:18.689Z,10.60
2018-09-19T06:36:47.199Z,16.40
2018-09-19T06:39:15.695Z,12.40
2018-09-19T06:41:44.191Z,12.77
2018-09-19T06:44:12.664Z,14.33
2018-09-19T06:46:41.437Z,17.30
2018-09-19T06:49:09.891Z,16.67
2018-09-19T06:51:38.386Z,14.17
2018-09-19T06:54:08.967Z,13.23
2018-09-19T06:56:37.455Z,16.00
2018-09-19T06:59:06.123Z,14.60
2018-09-19T07:01:34.593Z,15.93
2018-09-19T07:04:03.087Z,15.03
2018-09-19T07:06:32.681Z,14.50
2018-09-19T07:09:01.176Z,18.87
2018-09-19T07:12:33.054Z,18.57
2018-09-19T07:15:01.565Z,17.00
2018-09-19T07:17:30.068Z,19.37
2018-09-19T07:22:45.505Z,14.57
2018-09-19T07:25:14.091Z,19.50
2018-09-19T07:27:42.463Z,17.73
2018-09-19T07:30:11.023Z,10.17
2018-09-19T07:32:39.511Z,13.53
2018-09-19T07:35:08.022Z,10.83
2018-09-19T07:37:36.542Z,15.23
2018-09-19T07:40:05.104Z,10.73
2018-09-19T07:42:33.549Z,9.40
2018-09-19T07:45:01.981Z,8.97
2018-09-19T07:47:30.684Z,10.37
2018-09-19T07:49:59.196Z,7.40
2018-09-19T07:52:27.702Z,9.53
2018-09-19T07:54:56.160Z,11.50
2018-09-19T07:57:24.909Z,10.37
2018-09-19T07:59:53.597Z,15.30
2018-09-19T08:02:22.241Z,9.40
2018-09-19T08:04:51.033Z,9.17
2018-09-19T08:07:20.736Z,10.67
2018-09-19T08:09:49.392Z,8.17
2018-09-19T08:12:17.804Z,10.60
2018-09-19T08:14:46.813Z,9.47
2018-09-19T08:17:15.426Z,13.30
2018-09-19T08:19:43.903Z,8.97
2018-09-19T08:22:12.635Z,11.57
2018-09-19T08:24:41.412Z,8.93
2018-09-19T08:27:10.402Z,8.97
2018-09-19T08:29:39.116Z,9.53
2018-09-19T08:32:07.808Z,8.43
2018-09-19T08:34:36.465Z,10.97
2018-09-19T08:37:05.169Z,12.07
2018-09-19T08:39:33.663Z,13.37
2018-09-19T08:42:02.226Z,16.67
2018-09-19T08:44:30.717Z,12.13
2018-09-19T08:46:59.180Z,13.63
2018-09-19T08:49:27.733Z,9.20
2018-09-19T08:51:56.274Z,6.50
2018-09-19T08:54:24.806Z,9.80
2018-09-19T08:56:54.331Z,11.37
2018-09-19T08:59:22.821Z,11.10
2018-09-19T09:01:51.271Z,14.63
2018-09-19T09:04:19.740Z,12.50
2018-09-19T09:06:48.245Z,9.60
2018-09-19T09:09:16.757Z,12.97
2018-09-19T09:11:45.289Z,10.83
2018-09-19T09:14:13.814Z,9.67
2018-09-19T09:16:42.321Z,14.53
2018-09-19T09:19:10.815Z,7.90
2018-09-19T09:21:39.376Z,10.13
2018-09-19T09:24:07.879Z,9.53
2018-09-19T09:26:36.521Z,7.43
2018-09-19T09:29:05.044Z,9.77
2018-09-19T09:31:33.510Z,8.80
2018-09-19T09:34:02.026Z,7.77
2018-09-19T09:36:30.536Z,5.43
2018-09-19T09:38:59.014Z,9.50
2018-09-19T09:41:27.502Z,7.23
2018-09-19T09:43:56.063Z,9.03
2018-09-19T09:46:24.532Z,10.03
2018-09-19T09:48:53.027Z,12.90
2018-09-19T09:51:21.539Z,7.90
2018-09-19T09:53:50.033Z,6.60
2018-09-19T09:56:18.540Z,8.90
2018-09-19T09:58:47.056Z,8.77
2018-09-19T10:01:15.509Z,10.73
2018-09-19T10:03:44.021Z,7.47
2018-09-19T10:06:12.551Z,9.90
2018-09-19T10:08:41.028Z,9.53
2018-09-19T10:11:09.560Z,10.70
2018-09-19T10:13:38.130Z,7.60
2018-09-19T10:16:06.620Z,8.33
2018-09-19T10:18:35.117Z,10.70
2018-09-19T10:21:03.634Z,7.57
2018-09-19T10:23:32.169Z,9.17
2018-09-19T10:26:01.191Z,10.57
2018-09-19T10:28:29.657Z,13.67
2018-09-19T10:30:58.167Z,9.47
2018-09-19T10:33:26.666Z,5.27
2018-09-19T10:35:55.143Z,10.97
2018-09-19T10:38:23.625Z,10.47
2018-09-19T10:40:52.095Z,5.17
2018-09-19T10:43:20.553Z,8.43
2018-09-19T10:45:49.171Z,8.57
2018-09-19T10:48:17.631Z,10.17
2018-09-19T10:50:46.123Z,4.87
2018-09-19T10:53:14.635Z,7.10
2018-09-19T10:55:43.122Z,5.10
2018-09-19T10:58:11.688Z,4.50
2018-09-19T11:00:40.215Z,6.93
2018-09-19T11:03:08.671Z,3.67
2018-09-19T11:05:37.196Z,5.90
2018-09-19T11:08:05.685Z,5.10
2018-09-19T11:10:34.245Z,7.00
2018-09-19T11:13:02.825Z,9.87
2018-09-19T11:15:31.328Z,4.73
2018-09-19T11:17:59.807Z,10.03
2018-09-19T11:20:28.289Z,7.77
2018-09-19T11:22:56.800Z,6.97
2018-09-19T11:25:25.310Z,4.83
2018-09-19T11:27:53.782Z,6.13
2018-09-19T11:30:22.276Z,9.10
2018-09-19T11:32:50.908Z,11.10
2018-09-19T11:35:19.393Z,11.20
2018-09-19T11:37:47.849Z,7.30
2018-09-19T11:40:16.445Z,12.13
2018-09-19T11:42:44.924Z,6.70
2018-09-19T11:45:13.429Z,7.57
2018-09-19T11:47:41.873Z,4.67
2018-09-19T11:50:10.397Z,9.07
2018-09-19T11:52:38.893Z,9.40
2018-09-19T11:55:07.430Z,4.73
2018-09-19T11:57:35.917Z,11.17
2018-09-19T12:00:04.807Z,6.90
2018-09-19T12:02:33.271Z,17.33
2018-09-19T12:05:01.767Z,6.30
2018-09-19T12:07:30.678Z,6.57
2018-09-19T12:09:59.148Z,11.60
2018-09-19T12:12:27.696Z,10.63
2018-09-19T12:14:56.228Z,9.90
2018-09-19T12:17:24.712Z,4.13
2018-09-19T12:19:53.195Z,8.83
2018-09-19T12:22:21.706Z,5.33
2018-09-19T12:24:50.205Z,36.87
2018-09-19T12:27:18.704Z,12.40
2018-09-19T12:29:47.145Z,6.53
2018-09-19T12:32:15.608Z,5.80
2018-09-19T12:34:44.072Z,8.13
2018-09-19T12:37:12.562Z,8.63
2018-09-19T12:39:41.098Z,3.93
2018-09-19T12:42:09.550Z,9.23
2018-09-19T12:44:38.020Z,5.67
2018-09-19T12:47:06.582Z,10.87
2018-09-19T12:49:35.064Z,9.40
2018-09-19T12:52:03.597Z,6.90
2018-09-19T12:54:33.072Z,10.43
2018-09-19T12:57:01.612Z,9.63
2018-09-19T12:59:30.090Z,10.07
2018-09-19T13:01:58.573Z,18.37
2018-09-19T13:04:27.725Z,9.47
2018-09-19T13:06:56.288Z,13.60
2018-09-19T13:09:24.848Z,9.50
2018-09-19T13:11:53.399Z,9.20
2018-09-19T13:14:21.839Z,6.80
2018-09-19T13:16:50.377Z,6.37
2018-09-19T13:19:18.841Z,6.23
2018-09-19T13:21:50.904Z,8.30
2018-09-19T13:24:19.398Z,14.67
2018-09-19T13:26:47.910Z,5.00
2018-09-19T13:29:16.365Z,8.33
2018-09-19T13:31:45.680Z,4.83
2018-09-19T13:34:14.155Z,9.37
2018-09-19T13:36:42.667Z,9.57
2018-09-19T13:39:12.383Z,9.20
2018-09-19T13:41:41.160Z,9.43
2018-09-19T13:44:09.645Z,10.50
2018-09-19T13:46:38.106Z,8.17
2018-09-19T13:49:10.018Z,8.35
2018-09-19T13:51:38.506Z,6.50
2018-09-19T13:54:07.017Z,9.17
2018-09-19T13:56:35.587Z,7.07
2018-09-19T13:59:04.130Z,8.28
2018-09-19T14:01:32.633Z,5.12
2018-09-19T14:04:01.212Z,8.68
2018-09-19T14:06:29.777Z,58.35
2018-09-19T14:08:58.282Z,22.52
2018-09-19T14:11:26.929Z,53.28
2018-09-19T14:13:55.505Z,35.20
2018-09-19T14:16:24.029Z,19.27
2018-09-19T14:18:52.744Z,107.67
2018-09-19T14:21:21.305Z,111.75
2018-09-19T14:23:49.982Z,93.67
2018-09-19T14:26:18.805Z,74.20
2018-09-19T14:28:47.444Z,69.15
2018-09-19T14:31:15.932Z,36.30
2018-09-19T14:33:44.538Z,28.98
2018-09-19T14:36:13.109Z,29.20
2018-09-19T14:38:41.733Z,15.15
2018-09-19T14:41:10.309Z,16.23
2018-09-19T14:43:38.861Z,6.70
2018-09-19T14:46:07.681Z,15.63
2018-09-19T14:48:36.341Z,7.80
2018-09-19T14:51:04.850Z,7.15
2018-09-19T14:53:33.434Z,10.63
2018-09-19T14:56:02.201Z,8.08
2018-09-19T14:58:30.806Z,8.90
2018-09-19T15:00:59.364Z,4.67
2018-09-19T15:03:27.945Z,9.98
2018-09-19T15:05:56.550Z,7.78
2018-09-19T15:08:25.090Z,8.80
2018-09-19T15:10:54.420Z,5.15
2018-09-19T15:13:22.960Z,7.15
2018-09-19T15:15:51.483Z,12.68
2018-09-19T15:18:19.971Z,8.05
2018-09-19T15:20:48.481Z,29.45
2018-09-19T15:23:16.996Z,67.08
2018-09-19T15:25:45.571Z,193.15
2018-09-19T15:28:14.071Z,84.32
2018-09-19T15:30:43.042Z,57.23
2018-09-19T15:33:11.936Z,51.05
2018-09-19T15:35:40.520Z,13.62
2018-09-19T15:38:09.223Z,22.17
2018-09-19T15:40:37.876Z,21.17
2018-09-19T15:43:06.530Z,9.00
2018-09-19T15:45:35.110Z,9.83
2018-09-19T15:48:04.128Z,14.85
2018-09-19T15:50:33.410Z,9.05
2018-09-19T15:53:02.029Z,6.47
2018-09-19T15:55:30.669Z,11.73
2018-09-19T15:57:59.152Z,33.23
2018-09-19T16:00:27.721Z,7.15
2018-09-19T16:02:56.308Z,11.43
2018-09-19T16:05:24.856Z,6.03
2018-09-19T16:07:53.598Z,12.23
2018-09-19T16:10:22.101Z,13.43
2018-09-19T16:12:50.615Z,5.97
2018-09-19T16:15:19.169Z,7.03
2018-09-19T16:17:47.744Z,5.78
2018-09-19T16:20:16.289Z,8.13
2018-09-19T16:22:45.650Z,6.95
2018-09-19T16:25:14.402Z,7.40
2018-09-19T16:27:42.851Z,7.25
2018-09-19T16:30:11.497Z,6.10
2018-09-19T16:32:40.069Z,7.83
2018-09-19T16:35:08.653Z,7.10
2018-09-19T16:37:37.238Z,10.63
2018-09-19T16:40:05.891Z,20.33
2018-09-19T16:42:34.515Z,58.80
2018-09-19T16:45:03.672Z,77.87
2018-09-19T16:47:32.197Z,43.92
2018-09-19T16:50:00.970Z,50.00
2018-09-19T16:52:29.634Z,27.93
2018-09-19T16:54:58.745Z,26.07
2018-09-19T16:57:27.263Z,87.97
2018-09-19T16:59:55.854Z,78.40
2018-09-19T17:02:24.554Z,155.87
2018-09-19T17:04:53.245Z,27.60
2018-09-19T17:07:21.800Z,20.33
2018-09-19T17:09:50.403Z,13.63
2018-09-19T17:12:19.056Z,11.17
2018-09-19T17:14:47.657Z,13.57
2018-09-19T17:17:16.222Z,10.57
2018-09-19T17:19:44.870Z,12.20
2018-09-19T17:22:13.493Z,9.27
2018-09-19T17:24:42.045Z,11.73
2018-09-19T17:27:11.344Z,12.87
2018-09-19T17:29:39.973Z,5.93
2018-09-19T17:32:09.199Z,9.43
2018-09-19T17:34:37.858Z,9.07
2018-09-19T17:37:06.440Z,7.20
2018-09-19T17:39:36.682Z,14.03
2018-09-19T17:42:05.287Z,11.13
2018-09-19T17:44:34.131Z,6.33
2018-09-19T17:47:02.845Z,10.67
2018-09-19T17:49:31.691Z,5.87
2018-09-19T17:52:00.392Z,10.93
2018-09-19T17:54:29.041Z,6.23
2018-09-19T17:56:57.724Z,14.30
2018-09-19T17:59:26.379Z,8.37
2018-09-19T18:01:54.959Z,9.70
2018-09-19T18:04:23.534Z,8.13
2018-09-19T18:06:52.813Z,13.43
2018-09-19T18:09:21.531Z,10.20
2018-09-19T18:11:50.043Z,6.93
2018-09-19T18:14:18.721Z,6.87
2018-09-19T18:16:47.553Z,7.90
2018-09-19T18:19:16.165Z,16.97
2018-09-19T18:21:44.714Z,8.83
2018-09-19T18:24:13.333Z,9.60
2018-09-19T18:26:42.063Z,10.80
2018-09-19T18:29:10.811Z,6.60
2018-09-19T18:31:39.412Z,24.80
2018-09-19T18:34:08.108Z,41.20
2018-09-19T18:36:36.745Z,34.27
2018-09-19T18:39:05.854Z,37.70
2018-09-19T18:41:35.873Z,84.90
2018-09-19T18:44:04.506Z,32.57
2018-09-19T18:46:33.193Z,89.17
2018-09-19T18:49:01.949Z,54.07
2018-09-19T18:51:30.717Z,75.40
2018-09-19T18:53:59.465Z,27.47
2018-09-19T18:56:28.369Z,28.20
2018-09-19T18:58:56.962Z,32.10
2018-09-19T19:01:25.570Z,36.20
2018-09-19T19:03:54.183Z,35.27
2018-09-19T19:06:22.830Z,40.07
2018-09-19T19:08:51.324Z,25.63
2018-09-19T19:11:20.079Z,22.57
2018-09-19T19:13:48.687Z,41.27
2018-09-19T19:16:17.728Z,29.83
2018-09-19T19:18:46.384Z,35.13
2018-09-19T19:21:14.885Z,21.80
2018-09-19T19:23:45.687Z,83.87
2018-09-19T19:26:14.332Z,64.27
2018-09-19T19:28:43.854Z,79.37
2018-09-19T19:31:12.485Z,78.53
2018-09-19T19:33:44.623Z,132.40
2018-09-19T19:36:13.624Z,83.93
2018-09-19T19:38:42.251Z,54.20
2018-09-19T19:41:10.806Z,72.47
2018-09-19T19:43:39.571Z,30.43
2018-09-19T19:46:08.239Z,34.63
2018-09-19T19:48:36.758Z,24.13
2018-09-19T19:51:05.411Z,16.50
2018-09-19T19:53:33.887Z,13.97
2018-09-19T19:56:02.579Z,15.23
2018-09-19T19:58:31.098Z,20.70
2018-09-19T20:00:59.851Z,17.43
2018-09-19T20:03:28.382Z,23.93
2018-09-19T20:05:56.937Z,23.43
2018-09-19T20:08:25.492Z,42.80
2018-09-19T20:10:54.142Z,113.63
2018-09-19T20:13:22.697Z,144.17
2018-09-19T20:15:51.431Z,159.83
2018-09-19T20:18:19.937Z,179.33
2018-09-19T20:20:48.581Z,146.87
2018-09-19T20:23:17.225Z,37.80
2018-09-19T20:25:45.941Z,33.70
2018-09-19T20:28:14.477Z,49.00
2018-09-19T20:30:43.034Z,53.40
2018-09-19T20:33:11.574Z,67.27
2018-09-19T20:35:40.114Z,70.33
2018-09-19T20:38:08.780Z,50.47
2018-09-19T20:40:37.427Z,36.40
2018-09-19T20:43:06.045Z,37.97
2018-09-19T20:45:34.728Z,30.07
2018-09-19T20:48:03.321Z,38.77
2018-09-19T20:50:31.799Z,35.33
2018-09-19T20:53:00.300Z,32.73
2018-09-19T20:55:28.890Z,16.33
2018-09-19T20:57:57.474Z,22.43
2018-09-19T21:00:26.134Z,43.37
2018-09-19T21:02:54.724Z,48.47
2018-09-19T21:05:23.298Z,50.67
2018-09-19T21:07:51.820Z,17.30
2018-09-19T21:10:20.430Z,34.00
2018-09-19T21:12:49.018Z,30.47
2018-09-19T21:15:17.649Z,21.50
2018-09-19T21:17:46.263Z,33.60
2018-09-19T21:20:14.817Z,19.77
2018-09-19T21:22:43.545Z,37.43
2018-09-19T21:25:12.065Z,24.17
2018-09-19T21:27:40.665Z,25.93
2018-09-19T21:30:09.233Z,20.20
2018-09-19T21:32:37.818Z,38.60
2018-09-19T21:35:06.385Z,27.07
2018-09-19T21:37:34.890Z,28.13
2018-09-19T21:40:03.496Z,27.83
2018-09-19T21:42:32.061Z,23.30
2018-09-19T21:45:00.817Z,16.10
2018-09-19T21:47:29.328Z,22.20
2018-09-19T21:49:57.876Z,17.03
2018-09-19T21:52:26.518Z,8.57
2018-09-19T21:54:55.099Z,14.63
2018-09-19T21:57:23.629Z,14.60
2018-09-19T21:59:52.114Z,11.47
2018-09-19T22:02:20.721Z,22.47
2018-09-19T22:04:49.272Z,34.23
2018-09-19T22:07:17.976Z,39.53
2018-09-19T22:09:46.577Z,16.93
2018-09-19T22:12:15.118Z,20.40
2018-09-19T22:14:43.776Z,22.03
2018-09-19T22:17:12.653Z,27.13
2018-09-19T22:19:41.225Z,33.63
2018-09-19T22:22:09.772Z,20.90
2018-09-19T22:24:38.491Z,19.83
2018-09-19T22:27:07.060Z,14.80
2018-09-19T22:29:35.661Z,34.70
2018-09-19T22:32:04.275Z,32.17
2018-09-19T22:34:32.840Z,24.37
2018-09-19T22:37:01.372Z,19.50
2018-09-19T22:39:29.969Z,17.17
2018-09-19T22:41:58.575Z,25.20
2018-09-19T22:44:27.121Z,22.77
2018-09-19T22:46:55.695Z,14.33
2018-09-19T22:49:24.179Z,19.73
2018-09-19T22:51:52.778Z,15.87
2018-09-19T22:54:21.349Z,15.37
2018-09-19T22:56:49.904Z,16.13
2018-09-19T22:59:18.429Z,14.67
2018-09-19T23:01:46.980Z,13.73
2018-09-19T23:04:15.468Z,10.63
2018-09-19T23:06:44.072Z,13.17
2018-09-19T23:09:12.636Z,14.00
2018-09-19T23:11:41.212Z,10.83
2018-09-19T23:14:09.713Z,11.57
2018-09-19T23:16:38.284Z,14.17
2018-09-19T23:19:07.495Z,16.67
2018-09-19T23:21:36.066Z,12.13
2018-09-19T23:24:04.642Z,13.20
2018-09-19T23:26:33.209Z,11.90
2018-09-19T23:29:01.724Z,10.73
2018-09-19T23:31:30.272Z,13.50
2018-09-19T23:33:58.779Z,11.77
2018-09-19T23:36:27.337Z,11.47
2018-09-19T23:38:55.817Z,10.53
2018-09-19T23:41:24.326Z,16.57
2018-09-19T23:43:52.885Z,11.33
2018-09-19T23:46:21.456Z,10.53
2018-09-19T23:48:49.947Z,16.57
2018-09-19T23:51:18.488Z,21.87
2018-09-19T23:53:47.032Z,17.30
2018-09-19T23:56:15.711Z,17.60
2018-09-19T23:58:44.300Z,19.10
